Time;durP1;ratioP1;P1;durP2;ratioP2;P2;SDS_P1;SDS_P2;PMS_P1;PMS_P2;Temp;Humidity;BMP_temperature;BMP_pressure;BME280_temperature;BME280_humidity;BME280_pressure;Samples;Min_cycle;Max_cycle;Signal;HPM_P1;HPM_P2
2023/04/23 00:00:40;;;;;;;43.55;21.27;;;9.40;99.90;;;;;;5066933;28;20041;-58
2023/04/23 00:03:11;;;;;;;36.83;19.77;;;9.30;99.90;;;;;;5063016;28;20044;-56
2023/04/23 00:05:41;;;;;;;42.40;19.88;;;9.30;99.90;;;;;;5068040;28;20047;-58
2023/04/23 00:08:09;;;;;;;42.63;20.50;;;9.40;99.90;;;;;;5061014;28;20518;-58
2023/04/23 00:10:37;;;;;;;39.30;20.58;;;9.40;99.90;;;;;;5067242;28;20048;-59
2023/04/23 00:13:05;;;;;;;37.45;19.75;;;9.30;99.90;;;;;;5049831;28;20060;-57
2023/04/23 00:15:33;;;;;;;39.60;19.98;;;9.40;99.90;;;;;;5068813;28;20047;-57
2023/04/23 00:18:01;;;;;;;37.00;20.27;;;9.40;99.90;;;;;;5060633;28;20068;-57
2023/04/23 00:20:28;;;;;;;38.13;20.40;;;9.40;99.90;;;;;;5050444;28;20049;-57
2023/04/23 00:22:56;;;;;;;39.28;21.17;;;9.40;99.90;;;;;;5050679;28;20041;-58
2023/04/23 00:25:24;;;;;;;38.53;20.65;;;9.40;99.90;;;;;;5066444;28;20037;-58
2023/04/23 00:27:51;;;;;;;40.90;21.27;;;9.40;99.90;;;;;;5061237;28;20400;-57
2023/04/23 00:30:19;;;;;;;40.55;19.92;;;9.40;99.90;;;;;;5048159;28;20045;-57
2023/04/23 00:32:47;;;;;;;44.28;22.42;;;9.40;99.90;;;;;;5049450;28;20528;-59
2023/04/23 00:35:15;;;;;;;39.70;20.70;;;9.40;99.90;;;;;;5066728;28;20056;-59
2023/04/23 00:37:43;;;;;;;37.75;20.08;;;9.40;99.90;;;;;;5061832;28;20056;-59
2023/04/23 00:40:11;;;;;;;39.67;20.88;;;9.30;99.90;;;;;;5067970;28;20060;-58
2023/04/23 00:42:39;;;;;;;44.85;22.55;;;9.40;99.90;;;;;;5067571;28;20040;-58
2023/04/23 00:45:07;;;;;;;48.35;24.42;;;9.30;99.90;;;;;;5066743;28;20048;-58
2023/04/23 00:47:35;;;;;;;47.33;22.85;;;9.30;99.90;;;;;;5063090;28;20051;-59
2023/04/23 00:50:05;;;;;;;42.20;21.67;;;9.30;99.90;;;;;;5052277;28;20044;-56
2023/04/23 00:52:34;;;;;;;46.50;22.58;;;9.30;99.90;;;;;;5023828;28;20448;-58
2023/04/23 00:55:02;;;;;;;40.58;20.38;;;9.30;99.90;;;;;;5010167;28;20045;-58
2023/04/23 00:57:30;;;;;;;45.05;21.50;;;9.30;99.90;;;;;;5031003;28;20056;-58
2023/04/23 00:59:58;;;;;;;41.72;22.27;;;9.30;99.90;;;;;;5047585;28;20041;-58
2023/04/23 01:02:28;;;;;;;44.58;22.40;;;9.30;99.90;;;;;;5045901;28;20436;-57
2023/04/23 01:04:58;;;;;;;48.92;22.15;;;9.30;99.90;;;;;;5036648;28;20706;-57
2023/04/23 01:07:27;;;;;;;44.78;22.40;;;9.30;99.90;;;;;;5041057;28;20514;-56
2023/04/23 01:09:55;;;;;;;45.13;24.15;;;9.30;99.90;;;;;;5045877;28;20045;-58
2023/04/23 01:12:24;;;;;;;45.20;23.58;;;9.30;99.90;;;;;;5049500;28;20045;-57
2023/04/23 01:14:52;;;;;;;45.70;22.08;;;9.30;99.90;;;;;;5050942;28;20045;-57
2023/04/23 01:17:20;;;;;;;45.80;23.40;;;9.30;99.90;;;;;;5048879;28;20052;-57
2023/04/23 01:19:47;;;;;;;42.28;22.63;;;9.30;99.90;;;;;;5029709;28;20041;-57
2023/04/23 01:22:16;;;;;;;46.38;24.05;;;9.30;99.90;;;;;;5050268;28;20053;-57
2023/04/23 01:24:44;;;;;;;41.08;23.15;;;9.30;99.90;;;;;;5050897;28;20056;-57
2023/04/23 01:27:12;;;;;;;46.35;24.27;;;9.30;99.90;;;;;;5033186;28;20041;-57
2023/04/23 01:29:41;;;;;;;45.00;22.90;;;9.20;99.90;;;;;;5031072;28;20087;-57
2023/04/23 01:32:09;;;;;;;44.20;23.20;;;9.30;99.90;;;;;;5016093;28;20052;-57
2023/04/23 01:34:38;;;;;;;44.40;22.83;;;9.30;99.90;;;;;;5027732;28;20037;-57
2023/04/23 01:37:06;;;;;;;43.70;21.77;;;9.20;99.90;;;;;;5053467;28;20067;-57
2023/04/23 01:39:35;;;;;;;38.13;19.60;;;9.20;99.90;;;;;;5049718;28;20055;-57
2023/04/23 01:42:05;;;;;;;39.17;19.45;;;9.20;99.90;;;;;;5054223;28;20041;-58
2023/04/23 01:44:33;;;;;;;38.45;20.70;;;9.20;99.90;;;;;;5054315;28;20416;-58
2023/04/23 01:47:01;;;;;;;35.17;18.70;;;9.20;99.90;;;;;;5033745;28;20500;-57
2023/04/23 01:49:31;;;;;;;;;;;9.20;99.90;;;;;;5052848;28;20064;-57
2023/04/23 01:51:58;;;;;;;36.75;18.38;;;9.20;99.90;;;;;;5054111;28;19933;-58
2023/04/23 01:54:26;;;;;;;43.28;19.65;;;9.20;99.90;;;;;;5053934;28;20411;-58
2023/04/23 01:56:54;;;;;;;36.72;19.02;;;9.20;99.90;;;;;;5054270;28;20045;-58
2023/04/23 01:59:22;;;;;;;37.70;19.05;;;9.10;99.90;;;;;;5023292;28;20065;-57
2023/04/23 02:01:50;;;;;;;35.00;18.20;;;9.10;99.90;;;;;;5035982;28;20041;-56
2023/04/23 02:04:18;;;;;;;34.97;18.73;;;9.10;99.90;;;;;;5053543;28;20045;-57
2023/04/23 02:06:49;;;;;;;35.75;18.45;;;7.90;99.90;;;;;;5037291;28;20053;-57
2023/04/23 02:09:17;;;;;;;39.20;20.63;;;9.00;99.90;;;;;;5017609;28;20053;-56
2023/04/23 02:11:44;;;;;;;34.13;19.42;;;9.00;99.90;;;;;;5033195;28;20041;-57
2023/04/23 02:14:12;;;;;;;34.78;19.10;;;9.00;99.90;;;;;;5052592;28;20053;-56
2023/04/23 02:16:40;;;;;;;34.90;18.92;;;9.00;99.90;;;;;;5031571;28;20484;-57
2023/04/23 02:19:11;;;;;;;31.58;17.85;;;9.00;99.90;;;;;;5019738;28;20044;-57
2023/04/23 02:21:42;;;;;;;32.22;17.55;;;9.00;99.90;;;;;;5037833;28;20444;-56
2023/04/23 02:24:10;;;;;;;32.90;18.15;;;9.00;99.90;;;;;;5035910;28;20428;-56
2023/04/23 02:26:39;;;;;;;38.17;17.77;;;9.00;99.90;;;;;;5035504;28;20443;-56
2023/04/23 02:29:06;;;;;;;35.55;19.30;;;9.00;99.90;;;;;;5053601;28;20048;-56
2023/04/23 02:31:36;;;;;;;34.17;17.45;;;9.00;99.90;;;;;;5048006;28;20048;-56
2023/04/23 02:34:07;;;;;;;35.30;18.60;;;9.00;99.90;;;;;;5017669;28;20393;-57
2023/04/23 02:36:35;;;;;;;38.97;20.13;;;9.00;99.90;;;;;;5053083;28;20075;-57
2023/04/23 02:39:03;;;;;;;34.72;18.50;;;9.00;99.90;;;;;;5053370;28;20057;-57
2023/04/23 02:41:31;;;;;;;39.67;20.20;;;8.90;99.90;;;;;;5053201;28;20037;-57
2023/04/23 02:43:58;;;;;;;40.08;21.70;;;8.90;99.90;;;;;;5038939;28;20056;-58
2023/04/23 02:46:27;;;;;;;38.95;18.88;;;8.90;99.90;;;;;;5036360;28;20052;-57
2023/04/23 02:48:55;;;;;;;38.63;19.33;;;8.90;99.90;;;;;;5027952;28;20056;-57
2023/04/23 02:51:23;;;;;;;41.00;20.98;;;8.90;99.90;;;;;;5044240;28;20056;-56
2023/04/23 02:53:50;;;;;;;38.15;20.10;;;8.90;99.90;;;;;;5057639;28;20045;-57
2023/04/23 02:56:18;;;;;;;37.00;20.02;;;8.90;99.90;;;;;;5072904;28;20052;-57
2023/04/23 02:58:46;;;;;;;37.13;20.17;;;8.90;99.90;;;;;;5071593;28;20484;-56
2023/04/23 03:01:14;;;;;;;35.65;19.00;;;8.90;99.90;;;;;;5071851;28;20047;-56
2023/04/23 03:03:42;;;;;;;35.92;18.98;;;8.80;99.90;;;;;;5067792;28;20052;-57
2023/04/23 03:06:10;;;;;;;37.47;19.08;;;8.90;99.90;;;;;;5051354;28;20044;-57
2023/04/23 03:08:37;;;;;;;38.35;19.50;;;8.90;99.90;;;;;;5063518;28;20044;-57
2023/04/23 03:11:05;;;;;;;38.10;19.05;;;8.90;99.90;;;;;;5071400;28;20043;-58
2023/04/23 03:13:33;;;;;;;37.58;18.88;;;8.90;99.90;;;;;;5072097;28;20052;-57
2023/04/23 03:16:00;;;;;;;35.40;18.42;;;8.90;99.90;;;;;;5054806;28;20071;-57
2023/04/23 03:18:28;;;;;;;35.28;18.65;;;8.80;99.90;;;;;;5071551;28;20059;-57
2023/04/23 03:20:56;;;;;;;34.83;19.13;;;8.90;99.90;;;;;;5071265;28;20048;-57
2023/04/23 03:23:24;;;;;;;37.33;19.38;;;8.90;99.90;;;;;;5072397;28;20052;-57
2023/04/23 03:25:52;;;;;;;39.72;20.45;;;8.80;99.90;;;;;;5052379;28;20037;-57
2023/04/23 03:28:19;;;;;;;36.47;18.92;;;8.90;99.90;;;;;;5068306;28;20377;-57
2023/04/23 03:30:47;;;;;;;36.42;20.42;;;8.80;99.90;;;;;;5071034;28;20043;-58
2023/04/23 03:33:15;;;;;;;40.97;19.70;;;8.90;99.90;;;;;;5070997;28;20037;-57
2023/04/23 03:35:43;;;;;;;38.90;19.70;;;8.80;99.90;;;;;;5052393;28;20049;-56
2023/04/23 03:38:15;;;;;;;42.35;20.80;;;8.80;99.90;;;;;;5059407;28;20036;-56
2023/04/23 03:40:44;;;;;;;37.83;19.90;;;8.90;99.90;;;;;;5070745;28;20044;-56
2023/04/23 03:43:12;;;;;;;37.13;20.38;;;8.80;99.90;;;;;;5070976;28;20044;-58
2023/04/23 03:45:59;;;;;;;35.30;19.52;;;8.80;99.90;;;;;;5053070;28;20060;-57
2023/04/23 03:48:28;;;;;;;38.35;19.75;;;8.80;99.90;;;;;;5050765;28;20045;-57
2023/04/23 03:50:57;;;;;;;36.78;18.48;;;8.80;99.90;;;;;;5063433;28;20538;-57
2023/04/23 03:53:34;;;;;;;38.80;19.40;;;8.80;99.90;;;;;;5070309;28;20495;-56
2023/04/23 03:56:21;;;;;;;36.42;18.65;;;8.80;99.90;;;;;;5051969;28;20048;-56
2023/04/23 03:58:59;;;;;;;36.22;18.95;;;8.80;99.90;;;;;;5050411;28;20068;-57
2023/04/23 04:01:26;;;;;;;34.78;18.92;;;8.80;99.90;;;;;;5050561;28;20045;-57
2023/04/23 04:03:54;;;;;;;34.33;18.13;;;8.80;99.90;;;;;;5069329;28;20041;-58
2023/04/23 04:06:22;;;;;;;40.90;19.48;;;8.80;99.90;;;;;;5070512;28;20044;-56
2023/04/23 04:08:50;;;;;;;34.63;18.80;;;8.80;99.90;;;;;;5067320;28;20044;-56
2023/04/23 04:11:18;;;;;;;34.83;17.75;;;8.70;99.90;;;;;;5070481;28;20052;-57
2023/04/23 04:13:45;;;;;;;37.72;19.35;;;8.80;99.90;;;;;;5067001;28;20037;-58
2023/04/23 04:16:13;;;;;;;38.80;18.88;;;8.80;99.90;;;;;;5069777;28;20051;-56
2023/04/23 04:18:41;;;;;;;34.30;18.45;;;8.80;99.90;;;;;;5071650;28;20066;-58
2023/04/23 04:21:09;;;;;;;37.22;17.38;;;8.70;99.90;;;;;;5070221;28;20044;-57
2023/04/23 04:23:38;;;;;;;33.20;16.55;;;8.70;99.90;;;;;;5058171;28;20052;-56
2023/04/23 04:26:07;;;;;;;;;;;8.80;99.90;;;;;;5069006;28;20532;-57
2023/04/23 04:28:36;;;;;;;33.55;17.10;;;8.70;99.90;;;;;;5071574;28;20299;-57
2023/04/23 04:31:05;;;;;;;33.75;17.95;;;8.70;99.90;;;;;;5071420;28;20391;-56
2023/04/23 04:33:34;;;;;;;32.40;15.70;;;8.70;99.90;;;;;;5071467;28;20060;-56
2023/04/23 04:36:02;;;;;;;38.15;16.92;;;8.70;99.90;;;;;;5056896;28;20045;-59
2023/04/23 04:38:30;;;;;;;32.85;16.58;;;8.70;99.90;;;;;;5063847;28;20514;-57
2023/04/23 04:41:00;;;;;;;29.65;15.52;;;8.70;99.90;;;;;;5069866;28;20044;-61
2023/04/23 04:43:28;;;;;;;34.92;16.17;;;8.70;99.90;;;;;;5067609;28;20531;-61
2023/04/23 04:45:58;;;;;;;31.08;16.27;;;8.70;99.90;;;;;;5062498;28;20045;-63
2023/04/23 04:48:29;;;;;;;31.75;15.65;;;8.60;99.90;;;;;;5058881;28;20036;-58
2023/04/23 04:50:57;;;;;;;31.92;15.45;;;8.60;99.90;;;;;;5060301;28;20077;-58
2023/04/23 04:53:24;;;;;;;27.80;15.27;;;8.60;99.90;;;;;;5051330;28;20469;-58
2023/04/23 04:55:52;;;;;;;29.92;16.23;;;8.70;99.90;;;;;;5031973;28;20053;-56
2023/04/23 04:58:20;;;;;;;35.53;15.23;;;8.60;99.90;;;;;;5043146;28;20045;-57
2023/04/23 05:00:50;;;;;;;31.52;16.00;;;;;;;;;;5051693;28;20076;-58
2023/04/23 05:03:19;;;;;;;32.22;16.25;;;8.60;99.90;;;;;;5032043;28;20057;-58
2023/04/23 05:05:50;;;;;;;31.98;15.65;;;8.60;99.90;;;;;;5033635;28;20343;-58
2023/04/23 05:08:20;;;;;;;28.35;14.93;;;8.60;99.90;;;;;;5047112;28;20056;-58
2023/04/23 05:10:49;;;;;;;27.30;15.52;;;8.60;99.90;;;;;;5027640;28;20488;-57
2023/04/23 05:13:16;;;;;;;32.42;16.65;;;8.60;99.90;;;;;;5043683;28;20045;-57
2023/04/23 05:15:47;;;;;;;34.40;17.00;;;8.60;99.90;;;;;;5033079;28;20508;-58
2023/04/23 05:18:15;;;;;;;29.90;16.58;;;8.60;99.90;;;;;;5021772;28;20048;-57
2023/04/23 05:20:43;;;;;;;29.85;15.55;;;8.60;99.90;;;;;;5014240;28;20056;-58
2023/04/23 05:23:10;;;;;;;29.17;15.48;;;8.60;99.90;;;;;;5039374;28;20034;-57
2023/04/23 05:25:38;;;;;;;30.90;15.43;;;8.60;99.90;;;;;;5028271;28;20053;-57
2023/04/23 05:28:07;;;;;;;28.98;15.88;;;8.60;99.90;;;;;;5048301;28;20052;-57
2023/04/23 05:30:35;;;;;;;26.38;14.65;;;8.60;99.90;;;;;;5043598;28;20041;-57
2023/04/23 05:33:03;;;;;;;29.60;15.38;;;8.60;99.90;;;;;;5029241;28;20041;-56
2023/04/23 05:35:31;;;;;;;30.25;15.88;;;8.60;99.90;;;;;;5010033;28;20045;-57
2023/04/23 05:37:58;;;;;;;28.95;15.93;;;8.60;99.90;;;;;;5035850;28;20049;-57
2023/04/23 05:40:26;;;;;;;28.85;15.98;;;8.60;99.90;;;;;;5047303;28;20072;-58
2023/04/23 05:42:54;;;;;;;29.88;16.42;;;8.60;99.90;;;;;;5045702;28;20041;-58
2023/04/23 05:45:21;;;;;;;28.77;15.82;;;8.60;99.90;;;;;;5050354;28;20045;-56
2023/04/23 05:47:50;;;;;;;27.73;15.93;;;8.60;99.90;;;;;;5047661;28;20064;-56
2023/04/23 05:50:19;;;;;;;33.10;16.92;;;8.70;99.90;;;;;;5030739;28;20535;-57
2023/04/23 05:52:47;;;;;;;31.13;17.23;;;8.70;99.90;;;;;;5032419;28;20037;-57
2023/04/23 05:55:15;;;;;;;32.83;18.30;;;8.70;99.90;;;;;;5033242;28;20104;-56
2023/04/23 05:57:42;;;;;;;38.45;17.60;;;8.70;99.90;;;;;;5033430;28;20041;-57
2023/04/23 06:00:10;;;;;;;30.88;17.38;;;8.70;99.90;;;;;;5047175;28;20045;-58
2023/04/23 06:02:41;;;;;;;33.42;17.73;;;8.80;99.90;;;;;;5048840;28;20052;-57
2023/04/23 06:05:09;;;;;;;36.90;17.83;;;8.80;99.90;;;;;;5050048;28;20056;-57
2023/04/23 06:07:40;;;;;;;36.20;18.65;;;8.80;99.90;;;;;;5040603;28;20053;-58
2023/04/23 06:10:11;;;;;;;40.00;18.17;;;8.80;99.90;;;;;;5046367;28;20401;-58
2023/04/23 06:12:40;;;;;;;34.25;18.50;;;8.90;99.90;;;;;;5025815;28;20045;-57
2023/04/23 06:15:10;;;;;;;37.63;17.92;;;8.80;99.90;;;;;;5014195;28;20053;-57
2023/04/23 06:17:39;;;;;;;39.30;18.92;;;8.90;99.90;;;;;;5034950;28;20053;-57
2023/04/23 06:20:10;;;;;;;38.60;19.17;;;8.90;99.90;;;;;;5027404;28;20050;-57
2023/04/23 06:22:38;;;;;;;35.80;19.65;;;8.90;99.90;;;;;;5026387;28;20042;-58
2023/04/23 06:25:06;;;;;;;37.33;19.90;;;9.00;99.90;;;;;;5028641;28;20052;-58
2023/04/23 06:27:34;;;;;;;40.60;20.13;;;9.00;99.90;;;;;;5037090;28;20519;-57
2023/04/23 06:30:10;;;;;;;37.08;19.58;;;;;;;;;;5014304;28;20038;-57
2023/04/23 06:32:38;;;;;;;39.92;19.55;;;9.10;99.90;;;;;;5012143;28;20049;-57
2023/04/23 06:35:06;;;;;;;40.00;20.30;;;9.10;99.90;;;;;;5039617;28;20480;-58
2023/04/23 06:37:35;;;;;;;37.20;20.67;;;9.10;99.90;;;;;;5045706;28;20497;-57
2023/04/23 06:40:03;;;;;;;38.30;19.65;;;9.10;99.90;;;;;;5046486;28;20481;-58
2023/04/23 06:42:31;;;;;;;37.92;20.98;;;9.10;99.90;;;;;;5046227;28;20048;-58
2023/04/23 06:45:15;;;;;;;44.95;22.50;;;9.20;99.90;;;;;;5028977;28;20053;-59
2023/04/23 06:47:43;;;;;;;49.22;23.42;;;9.20;99.90;;;;;;5049422;28;20053;-58
2023/04/23 06:50:11;;;;;;;52.97;24.67;;;9.20;99.90;;;;;;5046820;28;20056;-57
2023/04/23 06:52:39;;;;;;;48.78;23.27;;;9.30;99.90;;;;;;5048977;28;20049;-58
2023/04/23 06:55:07;;;;;;;50.90;24.15;;;9.30;99.90;;;;;;5012358;28;20054;-57
2023/04/23 06:57:35;;;;;;;46.80;23.27;;;9.30;99.90;;;;;;5031309;28;20049;-57
2023/04/23 07:00:07;;;;;;;47.78;22.13;;;9.30;99.90;;;;;;5046453;28;20053;-57
2023/04/23 07:02:38;;;;;;;43.78;23.13;;;9.40;99.90;;;;;;5028142;28;20037;-58
2023/04/23 07:05:06;;;;;;;44.15;23.73;;;9.40;99.90;;;;;;5036988;28;20400;-58
2023/04/23 07:07:36;;;;;;;44.58;24.10;;;9.40;99.90;;;;;;5047519;28;20503;-57
2023/04/23 07:10:04;;;;;;;42.60;22.75;;;9.40;99.90;;;;;;5009992;28;20497;-57
2023/04/23 07:12:32;;;;;;;50.88;23.67;;;9.40;99.90;;;;;;5047634;28;20064;-57
2023/04/23 07:15:00;;;;;;;46.10;24.10;;;9.40;99.90;;;;;;5028475;28;20034;-58
2023/04/23 07:17:28;;;;;;;45.53;24.55;;;9.30;99.90;;;;;;5043527;28;20208;-58
2023/04/23 07:19:56;;;;;;;47.40;23.85;;;9.40;99.90;;;;;;5044508;28;20041;-57
2023/04/23 07:22:25;;;;;;;48.65;24.40;;;9.40;99.90;;;;;;5046090;28;20053;-58
2023/04/23 07:24:55;;;;;;;50.97;26.73;;;9.40;99.90;;;;;;5029969;28;20056;-58
2023/04/23 07:27:23;;;;;;;51.33;26.67;;;9.40;99.90;;;;;;5048571;28;20049;-59
2023/04/23 07:29:50;;;;;;;53.00;25.98;;;9.30;99.90;;;;;;5045033;28;20052;-58
2023/04/23 07:32:18;;;;;;;55.33;25.90;;;9.40;99.90;;;;;;5047723;28;20065;-58
2023/04/23 07:34:46;;;;;;;55.40;27.05;;;9.40;99.90;;;;;;5036876;28;20524;-57
2023/04/23 07:37:14;;;;;;;54.10;26.27;;;9.40;99.90;;;;;;5030666;28;20055;-58
2023/04/23 07:39:41;;;;;;;52.85;27.38;;;9.40;99.90;;;;;;5048850;28;20044;-58
2023/04/23 07:42:10;;;;;;;53.85;25.65;;;9.40;99.90;;;;;;5040887;28;20052;-58
2023/04/23 07:44:38;;;;;;;55.08;27.08;;;9.40;99.90;;;;;;5032305;28;20056;-59
2023/04/23 07:47:06;;;;;;;53.75;26.40;;;9.40;99.90;;;;;;5029440;28;20052;-59
2023/04/23 07:49:34;;;;;;;52.00;25.67;;;9.40;99.90;;;;;;5039881;28;20048;-57
2023/04/23 07:52:01;;;;;;;55.65;26.75;;;9.50;99.90;;;;;;5041264;28;20061;-58
2023/04/23 07:54:29;;;;;;;50.58;25.83;;;9.50;99.90;;;;;;5068317;28;20476;-57
2023/04/23 07:56:57;;;;;;;49.33;24.27;;;9.50;99.90;;;;;;5068640;28;20048;-57
2023/04/23 07:59:25;;;;;;;45.63;23.52;;;9.40;99.90;;;;;;5068013;28;20055;-58
2023/04/23 08:01:52;;;;;;;48.15;23.38;;;9.40;99.90;;;;;;5068231;28;20507;-57
2023/04/23 08:04:20;;;;;;;44.67;24.23;;;9.40;99.90;;;;;;5057783;28;20040;-58
2023/04/23 08:06:50;;;;;;;41.40;21.48;;;9.40;99.90;;;;;;5067979;28;20597;-58
2023/04/23 08:09:19;;;;;;;47.90;23.23;;;9.40;99.90;;;;;;5053856;28;20048;-58
2023/04/23 08:11:47;;;;;;;45.67;22.05;;;9.50;99.90;;;;;;5061449;28;20060;-56
2023/04/23 08:14:15;;;;;;;46.35;22.80;;;9.50;99.90;;;;;;5068170;28;20044;-58
2023/04/23 08:16:42;;;;;;;45.22;22.88;;;9.60;99.90;;;;;;5068145;28;20049;-57
2023/04/23 08:19:10;;;;;;;44.63;23.15;;;9.60;99.90;;;;;;5063169;28;20048;-58
2023/04/23 08:21:38;;;;;;;43.33;22.08;;;9.70;99.90;;;;;;5056830;28;20064;-58
2023/04/23 08:24:06;;;;;;;42.45;22.80;;;9.70;99.90;;;;;;5047543;28;20041;-57
2023/04/23 08:26:34;;;;;;;42.50;21.77;;;9.70;99.90;;;;;;5050578;28;20033;-58
2023/04/23 08:29:05;;;;;;;47.72;24.33;;;9.80;99.90;;;;;;5047978;28;20044;-58
2023/04/23 08:31:36;;;;;;;47.05;24.42;;;9.80;99.90;;;;;;5046778;28;20504;-58
2023/04/23 08:34:04;;;;;;;48.15;25.33;;;9.90;99.90;;;;;;5064366;28;20055;-59
2023/04/23 08:36:31;;;;;;;44.33;23.20;;;10.00;99.90;;;;;;5047851;28;20056;-57
2023/04/23 08:38:59;;;;;;;44.88;24.73;;;10.00;99.90;;;;;;5063753;28;20044;-58
2023/04/23 08:41:36;;;;;;;46.00;21.70;;;10.10;99.90;;;;;;5066656;28;20055;-58
2023/04/23 08:44:14;;;;;;;45.20;21.80;;;10.10;99.90;;;;;;5066601;28;20081;-57
2023/04/23 08:46:43;;;;;;;41.47;21.30;;;10.10;99.90;;;;;;5055014;28;20052;-57
2023/04/23 08:49:15;;;;;;;40.97;21.17;;;10.10;99.90;;;;;;5063216;28;20392;-57
2023/04/23 08:51:52;;;;;;;43.92;24.00;;;10.10;99.90;;;;;;5061963;28;20053;-58
2023/04/23 08:54:27;;;;;;;46.00;23.40;;;10.10;99.90;;;;;;5054541;28;20056;-57
2023/04/23 08:56:57;;;;;;;40.92;21.25;;;10.10;99.90;;;;;;5053472;28;20067;-58
2023/04/23 08:59:28;;;;;;;39.58;21.08;;;10.00;99.90;;;;;;5067889;28;20044;-58
2023/04/23 09:01:56;;;;;;;45.05;21.80;;;9.90;99.90;;;;;;5064436;28;20037;-58
2023/04/23 09:04:24;;;;;;;35.08;20.77;;;9.90;99.90;;;;;;5065706;28;20476;-57
2023/04/23 09:06:52;;;;;;;39.22;20.95;;;10.00;99.90;;;;;;5052095;28;20046;-57
2023/04/23 09:09:22;;;;;;;39.20;19.15;;;10.00;99.90;;;;;;5067289;28;20453;-58
2023/04/23 09:11:50;;;;;;;43.33;21.20;;;10.10;99.90;;;;;;5067713;28;20052;-58
2023/04/23 09:14:24;;;;;;;39.22;20.80;;;10.20;99.90;;;;;;5064311;28;20047;-57
2023/04/23 09:16:54;;;;;;;37.35;20.25;;;10.20;99.90;;;;;;5066781;28;20484;-57
2023/04/23 09:19:24;;;;;;;38.83;19.98;;;10.20;99.90;;;;;;5064682;28;20044;-58
2023/04/23 09:21:52;;;;;;;33.40;19.35;;;10.20;99.90;;;;;;5045525;28;20052;-56
2023/04/23 09:24:24;;;;;;;33.63;18.70;;;10.10;99.90;;;;;;5057360;28;20052;-57
2023/04/23 09:26:52;;;;;;;36.35;19.45;;;10.00;99.90;;;;;;5067348;28;20055;-56
2023/04/23 09:29:22;;;;;;;33.67;18.38;;;9.80;99.90;;;;;;5052255;28;20044;-57
2023/04/23 09:31:51;;;;;;;29.02;16.80;;;9.80;99.90;;;;;;5058246;28;20049;-58
2023/04/23 09:34:22;;;;;;;31.52;18.58;;;9.80;99.90;;;;;;5050476;28;20405;-56
2023/04/23 09:36:52;;;;;;;33.72;18.52;;;9.80;99.90;;;;;;5063412;28;20093;-57
2023/04/23 09:39:23;;;;;;;36.87;18.20;;;9.80;99.90;;;;;;5069539;28;20048;-58
2023/04/23 09:41:52;;;;;;;33.13;18.38;;;9.80;99.90;;;;;;5066693;28;20049;-58
2023/04/23 09:44:21;;;;;;;33.42;17.98;;;9.90;99.90;;;;;;5057067;28;20048;-57
2023/04/23 09:46:49;;;;;;;31.52;17.08;;;9.90;99.90;;;;;;5062487;28;20052;-57
2023/04/23 09:49:17;;;;;;;31.63;18.17;;;10.10;99.90;;;;;;5064844;28;20048;-58
2023/04/23 09:51:47;;;;;;;32.00;17.75;;;10.10;99.90;;;;;;5039238;28;20052;-57
2023/04/23 09:54:24;;;;;;;29.73;17.67;;;10.10;99.90;;;;;;5050116;28;20041;-58
2023/04/23 09:56:56;;;;;;;29.38;16.88;;;10.30;99.90;;;;;;5037638;28;20052;-58
2023/04/23 09:59:26;;;;;;;28.05;15.70;;;10.40;99.90;;;;;;5038620;28;20489;-58
2023/04/23 10:02:13;;;;;;;31.52;18.13;;;10.50;99.90;;;;;;5031154;28;20527;-57
2023/04/23 10:04:40;;;;;;;29.25;17.65;;;10.50;99.90;;;;;;5013018;28;20582;-57
2023/04/23 10:07:12;;;;;;;31.08;17.42;;;10.50;99.90;;;;;;5031034;28;20049;-57
2023/04/23 10:09:47;;;;;;;25.63;16.00;;;10.60;99.90;;;;;;5016337;28;20072;-58
2023/04/23 10:12:16;;;;;;;29.88;16.63;;;10.70;99.90;;;;;;5037517;28;20049;-58
2023/04/23 10:15:04;;;;;;;28.98;16.58;;;10.70;99.90;;;;;;5038445;28;20048;-58
2023/04/23 10:17:35;;;;;;;28.33;16.73;;;10.80;99.90;;;;;;5023400;28;20053;-58
2023/04/23 10:20:03;;;;;;;29.60;16.58;;;10.80;99.90;;;;;;5040909;28;20041;-58
2023/04/23 10:22:32;;;;;;;27.77;15.45;;;10.80;99.90;;;;;;5038858;28;20476;-58
2023/04/23 10:25:07;;;;;;;29.17;16.08;;;10.80;99.90;;;;;;5035544;28;20033;-57
2023/04/23 10:27:40;;;;;;;26.30;15.93;;;10.80;99.90;;;;;;5000704;28;20060;-57
2023/04/23 10:30:21;;;;;;;28.83;15.93;;;10.80;99.90;;;;;;5036378;28;20484;-57
2023/04/23 10:32:50;;;;;;;28.25;15.75;;;10.80;99.90;;;;;;5043359;28;20048;-57
2023/04/23 10:35:18;;;;;;;29.42;17.05;;;10.90;99.90;;;;;;5030415;28;20045;-56
2023/04/23 10:37:47;;;;;;;29.42;16.52;;;10.90;99.90;;;;;;5017122;28;20057;-57
2023/04/23 10:40:20;;;;;;;30.80;17.20;;;10.90;99.90;;;;;;5040009;28;20468;-59
2023/04/23 10:42:48;;;;;;;27.15;16.25;;;10.90;99.90;;;;;;5046365;28;20792;-58
2023/04/23 10:45:18;;;;;;;27.92;16.15;;;11.00;99.90;;;;;;5044899;28;20044;-57
2023/04/23 10:47:56;;;;;;;27.95;16.27;;;11.00;99.90;;;;;;5043490;28;20040;-58
2023/04/23 10:50:29;;;;;;;28.00;17.13;;;11.00;99.90;;;;;;5030795;28;20045;-59
2023/04/23 10:52:57;;;;;;;26.40;15.75;;;11.10;99.90;;;;;;5030139;28;20049;-58
2023/04/23 10:55:27;;;;;;;28.35;16.25;;;11.20;99.90;;;;;;5039393;28;20037;-57
2023/04/23 10:57:58;;;;;;;25.95;16.10;;;11.20;99.90;;;;;;5028344;28;20049;-58
2023/04/23 11:00:42;;;;;;;25.42;15.05;;;11.30;99.90;;;;;;5037710;28;20472;-59
2023/04/23 11:03:32;;;;;;;22.08;13.80;;;11.50;99.90;;;;;;5026469;28;20057;-58
2023/04/23 11:06:04;;;;;;;24.25;14.63;;;11.50;99.90;;;;;;5026808;28;20046;-58
2023/04/23 11:08:34;;;;;;;23.15;13.73;;;11.60;99.90;;;;;;5019723;28;20046;-57
2023/04/23 11:11:07;;;;;;;25.60;14.10;;;11.70;99.90;;;;;;5036451;28;20049;-58
2023/04/23 11:13:35;;;;;;;23.98;14.30;;;11.80;99.90;;;;;;5044483;28;20405;-58
2023/04/23 11:16:22;;;;;;;24.90;14.68;;;11.80;99.90;;;;;;5049251;28;20499;-57
2023/04/23 11:19:05;;;;;;;24.45;14.02;;;11.90;99.90;;;;;;5016816;28;20054;-58
2023/04/23 11:22:12;;;;;;;26.02;14.98;;;11.90;99.90;;;;;;5036414;28;20515;-58
2023/04/23 11:24:42;;;;;;;20.45;12.98;;;12.00;99.90;;;;;;4945777;29;20438;-57
2023/04/23 11:27:17;;;;;;;20.50;12.82;;;12.10;99.90;;;;;;4929458;29;20519;-58
2023/04/23 11:29:46;;;;;;;23.73;13.68;;;12.10;99.90;;;;;;4988732;28;20072;-59
2023/04/23 11:32:15;;;;;;;24.30;13.35;;;12.10;99.90;;;;;;5048828;28;20048;-58
2023/04/23 11:34:44;;;;;;;;;;;12.20;99.90;;;;;;5032614;28;20056;-59
2023/04/23 11:37:13;;;;;;;20.33;13.32;;;12.30;99.90;;;;;;5029440;28;19928;-60
2023/04/23 11:39:46;;;;;;;21.80;12.80;;;12.30;99.90;;;;;;5047531;28;20052;-58
2023/04/23 11:42:18;;;;;;;21.00;13.13;;;12.40;99.90;;;;;;5011186;28;20111;-59
2023/04/23 11:44:46;;;;;;;20.77;13.18;;;12.40;99.90;;;;;;5016820;28;20038;-58
2023/04/23 11:47:15;;;;;;;21.60;13.70;;;12.50;99.90;;;;;;5044961;28;20053;-60
2023/04/23 11:49:44;;;;;;;24.23;14.20;;;12.50;99.90;;;;;;5046835;28;20037;-58
2023/04/23 11:52:13;;;;;;;24.70;14.67;;;12.60;99.90;;;;;;5049052;28;20049;-58
2023/04/23 11:54:41;;;;;;;24.85;15.45;;;12.50;99.90;;;;;;5048580;28;20055;-59
2023/04/23 11:57:13;;;;;;;27.10;15.40;;;12.40;99.90;;;;;;5048163;28;20053;-57
2023/04/23 11:59:41;;;;;;;26.10;15.32;;;12.30;99.90;;;;;;5048577;28;20699;-58
2023/04/23 12:02:09;;;;;;;25.08;14.63;;;12.10;99.90;;;;;;5063847;28;20048;-59
2023/04/23 12:04:38;;;;;;;25.55;14.70;;;11.90;99.90;;;;;;5048242;28;20107;-58
2023/04/23 12:07:08;;;;;;;23.88;14.18;;;11.50;99.90;;;;;;5047830;28;20056;-58
2023/04/23 12:09:58;;;;;;;24.75;13.93;;;11.50;99.90;;;;;;5056320;28;20051;-58
2023/04/23 12:12:34;;;;;;;24.45;14.75;;;;;;;;;;5063478;28;20052;-58
2023/04/23 12:15:06;;;;;;;22.58;14.55;;;11.00;99.90;;;;;;5055333;28;20048;-57
2023/04/23 12:17:34;;;;;;;25.88;14.80;;;11.00;99.90;;;;;;5051468;28;20056;-58
2023/04/23 12:20:11;;;;;;;24.58;14.20;;;10.80;99.90;;;;;;5065488;28;20076;-58
2023/04/23 12:22:39;;;;;;;25.40;15.48;;;10.80;99.90;;;;;;5048641;28;20037;-58
2023/04/23 12:25:08;;;;;;;25.95;15.88;;;10.80;99.90;;;;;;5069916;28;20045;-58
2023/04/23 12:27:41;;;;;;;26.58;15.30;;;10.60;99.90;;;;;;5049842;28;20413;-58
2023/04/23 12:30:12;;;;;;;24.95;16.08;;;10.70;99.90;;;;;;5062206;28;20127;-58
2023/04/23 12:32:40;;;;;;;29.60;16.48;;;10.60;99.90;;;;;;5067324;28;20059;-60
2023/04/23 12:35:09;;;;;;;29.30;14.77;;;10.60;99.90;;;;;;5048658;28;20045;-58
2023/04/23 12:37:37;;;;;;;25.65;15.20;;;10.60;99.90;;;;;;5052004;28;20040;-59
2023/04/23 12:40:06;;;;;;;26.13;15.40;;;10.50;99.90;;;;;;5062971;28;20041;-59
2023/04/23 12:42:34;;;;;;;31.10;16.85;;;10.50;99.90;;;;;;5065589;28;20052;-58
2023/04/23 12:45:07;;;;;;;25.90;16.23;;;10.50;99.90;;;;;;5042884;28;20053;-59
2023/04/23 12:47:35;;;;;;;26.63;15.90;;;10.40;99.90;;;;;;5048475;28;20045;-61